Nitra, Slovakia

9:37 PM CET on March 06, 2015 (GMT +0100)
INITRANI2 | Change Station
CLOSE
Current Station
Personal Weather Station
Location: Nitrianske Hrnciarovce, Nitriansky kraj
Elevation: 837 ft
Nearby Weather Stations

Elev 837 ft 48.34 °N, 18.13 °E | Updated 1 minute ago

Clear
Clear
37.8 °F
Feels Like 38 °F
N
1.0
Wind Variable Wind from NNW
Gusts 1.0 mph

Today
High -- | Low -- °F
--% Chance of Precip.
Yesterday
High -- | Low -- °F
Precip. -- in
6:19 AM 5:38 PM
Full, 99% visible
Pressure 30.57 in
Visibility -9999.0 miles
Clouds
Windchill 38 °F
Dew Point 25 °F
Humidity 60%
Rainfall in
Snow Depth Not available.
UV Not available.
Pollen Not available.
Air Quality Not available.
Flu Activity Not available.
METAR LZIB 062030Z VRB02KT CAVOK 02/M05 Q1035

More Conditions Fewer Conditions

Pressure 30.57 in
Visibility -9999.0 miles
Clouds
Windchill 38 °F
Dew Point 25 °F
Humidity 60%
Rainfall in
Snow Depth Not available.
UV Not available.
Pollen Not available.
Air Quality Not available.
Flu Activity Not available.
METAR LZIB 062030Z VRB02KT CAVOK 02/M05 Q1035

More Conditions Fewer Conditions

10-Day Weather Forecast

Almanac

Astronomy

Mar. 06, 2015 Rise Set
Actual Time
Civil Twilight
Nautical Twilight
Astronomical Twilight
Moon
Length of Visible Light
Length of Day
Tomorrow will be .
, % of the Moon is Illuminated

Today's Extremes

Country Highs Country Lows

Community

WunderPhotos

Upload Photos

1,803,389 photos uploaded!

WunderBlogs® & News

Nearby

Air Quality

  Air Quality AQ Index Pollutant
Not available.

Snow Depth

Station Depth Elevation

Earthquake Activity

City Distance Mag. Time & Date
Minimum magnitude displayed is 2.5.

Coastal Water Temperatures

Place Temperature

Nearby Weather Stations